createdAt,value
2022-10-25T00:04:12.408Z,1006.7
2022-10-25T00:09:27.722Z,1006.6
2022-10-25T00:14:39.131Z,1006.7
2022-10-25T00:19:41.720Z,1006.6
2022-10-25T00:24:48.095Z,1006.7
2022-10-25T00:29:44.484Z,1006.6
2022-10-25T00:35:01.034Z,1006.7
2022-10-25T00:40:07.470Z,1006.7
2022-10-25T00:45:13.878Z,1006.7
2022-10-25T00:50:48.280Z,1006.7
2022-10-25T00:55:30.607Z,1006.8
2022-10-25T01:00:23.037Z,1006.8
2022-10-25T01:05:39.382Z,1006.8
2022-10-25T01:10:45.755Z,1006.8
2022-10-25T01:15:52.147Z,1006.8
2022-10-25T01:22:30.674Z,1006.9
2022-10-25T01:26:24.938Z,1006.7
2022-10-25T01:31:01.300Z,1006.8
2022-10-25T01:36:37.716Z,1006.8
2022-10-25T01:41:24.053Z,1006.9
2022-10-25T01:46:20.445Z,1006.9
2022-10-25T01:52:10.928Z,1007.0
2022-10-25T01:57:18.315Z,1007.0
2022-10-25T02:02:14.704Z,1007.0
2022-10-25T02:07:21.174Z,1007.1
2022-10-25T02:12:37.568Z,1007.1
2022-10-25T02:17:57.995Z,1007.1
2022-10-25T02:22:50.432Z,1007.1
2022-10-25T02:27:47.002Z,1007.0
2022-10-25T02:33:03.182Z,1007.0
2022-10-25T02:38:11.118Z,1007.0
2022-10-25T02:43:17.540Z,1007.0
2022-10-25T02:48:13.934Z,1007.0
2022-10-25T02:53:30.290Z,1007.0
2022-10-25T02:59:52.736Z,1007.2
2022-10-25T03:03:43.067Z,1007.1
2022-10-25T03:08:52.425Z,1007.3
2022-10-25T03:13:45.816Z,1007.3
2022-10-25T03:19:02.247Z,1007.4
2022-10-25T03:23:58.606Z,1007.4
2022-10-25T03:29:05.000Z,1007.5
2022-10-25T03:34:21.447Z,1007.5
2022-10-25T03:39:17.769Z,1007.6
2022-10-25T03:44:34.167Z,1007.6
2022-10-25T03:49:40.583Z,1007.7
2022-10-25T03:54:46.938Z,1007.8
2022-10-25T03:59:53.329Z,1007.8
2022-10-25T04:04:59.821Z,1007.8
2022-10-25T04:10:26.322Z,1007.9
2022-10-25T04:15:16.658Z,1007.9
2022-10-25T04:20:09.169Z,1007.9
2022-10-25T04:25:25.638Z,1007.9
2022-10-25T04:30:22.007Z,1008.1
2022-10-25T04:35:38.434Z,1008.0
2022-10-25T04:41:28.884Z,1008.0
2022-10-25T04:46:36.277Z,1008.1
2022-10-25T04:52:06.723Z,1008.0
2022-10-25T04:57:03.096Z,1008.2
2022-10-25T05:01:55.462Z,1008.1
2022-10-25T05:07:09.893Z,1008.1
2022-10-25T05:12:42.330Z,1008.2
2022-10-25T05:18:13.744Z,1008.3
2022-10-25T05:22:56.090Z,1008.3
2022-10-25T05:28:22.477Z,1008.2
2022-10-25T05:33:08.812Z,1008.4
2022-10-25T05:38:39.338Z,1008.4
2022-10-25T05:43:21.634Z,1008.5
2022-10-25T05:48:28.138Z,1008.6
2022-10-25T05:53:24.495Z,1008.6
2022-10-25T05:58:40.918Z,1008.7
2022-10-25T06:03:47.280Z,1008.7
2022-10-25T06:08:43.640Z,1008.8
2022-10-25T06:14:04.079Z,1008.7
2022-10-25T06:19:06.435Z,1008.8
2022-10-25T06:24:16.821Z,1008.7
2022-10-25T06:29:09.218Z,1008.8
2022-10-25T06:34:25.702Z,1009.0
2022-10-25T06:39:56.200Z,1009.1
2022-10-25T06:44:27.546Z,1009.2
2022-10-25T06:49:44.937Z,1009.3
2022-10-25T06:54:51.322Z,1009.4
2022-10-25T06:59:57.755Z,1009.5
2022-10-25T07:05:08.104Z,1009.6
2022-10-25T07:10:10.501Z,1009.7
2022-10-25T07:15:38.713Z,1009.7
2022-10-25T07:20:13.354Z,1009.8
2022-10-25T07:25:29.762Z,1009.8
2022-10-25T07:30:36.140Z,1009.9
2022-10-25T07:35:52.549Z,1009.8
2022-10-25T07:56:54.127Z,1009.9
2022-10-25T08:02:00.486Z,1010.0
2022-10-25T08:07:06.869Z,1010.0
2022-10-25T08:12:17.983Z,1010.1
2022-10-25T08:17:21.366Z,1010.2
2022-10-25T08:22:55.807Z,1010.1
2022-10-25T08:32:59.025Z,1010.1
2022-10-25T08:37:36.414Z,1010.2
2022-10-25T08:42:42.809Z,1010.2
2022-10-25T08:47:59.204Z,1010.3
2022-10-25T08:53:05.635Z,1010.3
2022-10-25T08:58:32.043Z,1010.5
2022-10-25T09:03:18.392Z,1010.5
2022-10-25T09:08:24.797Z,1010.6
2022-10-25T09:13:45.194Z,1010.7
2022-10-25T09:18:27.526Z,1010.8
2022-10-25T09:23:46.957Z,1010.7
2022-10-25T09:29:14.361Z,1010.8
2022-10-25T09:34:03.969Z,1010.8
2022-10-25T09:39:23.140Z,1011.0
2022-10-25T09:44:09.463Z,1010.8
2022-10-25T09:49:35.877Z,1011.0
2022-10-25T09:54:22.228Z,1011.0
2022-10-25T09:59:48.966Z,1011.0
2022-10-25T10:04:35.283Z,1011.1
2022-10-25T10:09:45.678Z,1011.2
2022-10-25T10:15:08.353Z,1011.3
2022-10-25T10:19:56.238Z,1011.3
2022-10-25T10:25:02.633Z,1011.2
2022-10-25T10:30:09.075Z,1011.4
2022-10-25T10:35:15.466Z,1011.3
2022-10-25T10:41:00.942Z,1011.2
2022-10-25T10:46:08.323Z,1011.2
2022-10-25T10:51:50.158Z,1011.3
2022-10-25T10:56:21.120Z,1011.2
2022-10-25T11:01:27.741Z,1011.2
2022-10-25T11:06:34.081Z,1011.3
2022-10-25T11:11:40.593Z,1011.2
2022-10-25T11:16:46.965Z,1011.0
2022-10-25T11:21:53.341Z,1011.1
2022-10-25T11:26:49.805Z,1011.5
2022-10-25T11:32:06.102Z,1011.3
2022-10-25T11:37:12.508Z,1011.1
2022-10-25T11:42:19.166Z,1011.0
2022-10-25T11:47:49.491Z,1011.3
2022-10-25T11:52:31.792Z,1011.2
2022-10-25T11:57:38.295Z,1011.3
2022-10-25T12:02:44.760Z,1011.2
2022-10-25T12:07:50.961Z,1011.1
2022-10-25T12:13:25.493Z,1011.3
2022-10-25T12:17:53.706Z,1011.3
2022-10-25T12:23:10.093Z,1011.4
2022-10-25T12:28:20.505Z,1011.3
2022-10-25T12:33:23.009Z,1011.0
2022-10-25T12:38:29.262Z,1011.0
2022-10-25T12:43:39.662Z,1010.9
2022-10-25T12:48:42.157Z,1011.3
2022-10-25T12:53:47.427Z,1010.8
2022-10-25T12:59:08.833Z,1010.9
2022-10-25T13:04:01.298Z,1010.7
2022-10-25T13:09:11.570Z,1010.9
2022-10-25T13:14:03.925Z,1010.8
2022-10-25T13:19:54.037Z,1010.9
2022-10-25T13:24:30.712Z,1012.1
2022-10-25T13:29:33.092Z,1012.4
2022-10-25T13:34:53.610Z,1012.7
2022-10-25T13:39:45.843Z,1012.8
2022-10-25T13:44:56.236Z,1013.2
2022-10-25T13:49:58.837Z,1012.8
2022-10-25T13:55:05.098Z,1012.4
2022-10-25T14:00:31.561Z,1011.9
2022-10-25T14:05:17.873Z,1012.2
2022-10-25T14:10:24.243Z,1011.9
2022-10-25T14:15:20.603Z,1011.6
2022-10-25T14:21:49.444Z,1011.0
2022-10-25T14:25:43.663Z,1011.3
2022-10-25T14:30:50.064Z,1011.0
2022-10-25T14:35:56.449Z,1010.9
2022-10-25T14:41:02.861Z,1010.9
2022-10-25T14:46:13.238Z,1010.9
2022-10-25T14:51:15.661Z,1010.8
2022-10-25T14:56:22.261Z,1010.8
2022-10-25T15:01:28.818Z,1010.9
2022-10-25T15:11:49.169Z,1010.8
2022-10-25T15:17:14.504Z,1010.8
2022-10-25T15:28:04.359Z,1010.7
2022-10-25T15:32:51.750Z,1010.8
2022-10-25T15:38:18.262Z,1010.9
2022-10-25T15:42:54.532Z,1010.9
2022-10-25T15:48:10.976Z,1010.9
2022-10-25T15:53:21.332Z,1010.9
2022-10-25T15:58:23.708Z,1010.8
2022-10-25T16:03:54.162Z,1010.9
2022-10-25T16:13:42.872Z,1011.0
2022-10-25T16:18:49.255Z,1011.0
2022-10-25T16:24:19.901Z,1011.0
2022-10-25T16:29:22.266Z,1011.2
2022-10-25T16:34:08.624Z,1011.1
2022-10-25T16:39:35.056Z,1011.1
2022-10-25T16:44:21.362Z,1011.1
2022-10-25T16:49:27.774Z,1011.3
2022-10-25T16:55:18.261Z,1011.3
2022-10-25T16:59:40.621Z,1011.2
2022-10-25T17:04:47.108Z,1011.3
2022-10-25T17:09:53.603Z,1011.3
2022-10-25T17:14:49.900Z,1011.3
2022-10-25T17:20:06.275Z,1011.3
2022-10-25T17:25:12.717Z,1011.3
2022-10-25T17:31:17.203Z,1011.3
2022-10-25T17:35:50.504Z,1011.2
2022-10-25T17:41:06.998Z,1011.2
2022-10-25T17:46:13.416Z,1011.3
2022-10-25T17:51:19.812Z,1011.3
2022-10-25T17:56:26.242Z,1011.4
2022-10-25T18:01:32.792Z,1011.5
2022-10-25T18:06:39.052Z,1011.5
2022-10-25T18:11:45.536Z,1011.5
2022-10-25T18:16:52.007Z,1011.5
2022-10-25T18:21:58.514Z,1011.4
2022-10-25T18:27:04.881Z,1011.4
2022-10-25T18:32:15.276Z,1011.4
2022-10-25T18:37:17.667Z,1011.5
2022-10-25T18:42:24.013Z,1011.4
2022-10-25T18:47:30.398Z,1011.4
2022-10-25T18:52:26.773Z,1011.4
2022-10-25T18:57:42.134Z,1011.3
2022-10-25T19:03:03.536Z,1011.3
2022-10-25T19:08:19.961Z,1011.3
2022-10-25T19:12:52.268Z,1011.3
2022-10-25T19:18:08.686Z,1011.3
2022-10-25T19:23:15.108Z,1011.3
2022-10-25T19:28:11.492Z,1011.2
2022-10-25T19:33:27.866Z,1011.2
2022-10-25T19:38:54.445Z,1011.2
2022-10-25T19:43:40.809Z,1011.2
2022-10-25T19:48:47.154Z,1011.2
2022-10-25T19:53:53.548Z,1011.2
2022-10-25T19:58:59.959Z,1011.3
2022-10-25T20:04:06.355Z,1011.2
2022-10-25T20:09:12.741Z,1011.2
2022-10-25T20:14:39.182Z,1011.1
2022-10-25T20:19:25.502Z,1011.2
2022-10-25T20:24:31.950Z,1011.2
2022-10-25T20:29:38.424Z,1011.1
2022-10-25T20:34:44.947Z,1011.2
2022-10-25T20:40:15.372Z,1011.2
2022-10-25T20:44:57.801Z,1011.2
2022-10-25T20:50:04.134Z,1011.2
2022-10-25T20:55:30.545Z,1011.2
2022-10-25T21:00:06.881Z,1011.2
2022-10-25T21:05:23.363Z,1011.1
2022-10-25T21:10:53.775Z,1011.2
2022-10-25T21:15:36.108Z,1011.2
2022-10-25T21:20:42.518Z,1011.2
2022-10-25T21:25:38.854Z,1011.2
2022-10-25T21:30:55.253Z,1011.2
2022-10-25T21:36:01.679Z,1011.2
2022-10-25T21:41:08.018Z,1011.2
2022-10-25T21:46:38.570Z,1011.2
2022-10-25T21:51:41.058Z,1011.2
2022-10-25T21:56:47.535Z,1011.2
2022-10-25T22:01:58.092Z,1011.1
2022-10-25T22:07:00.329Z,1011.2
2022-10-25T22:11:46.656Z,1011.2
2022-10-25T22:16:53.016Z,1011.1
2022-10-25T22:21:59.406Z,1011.1
2022-10-25T22:27:05.795Z,1011.2
2022-10-25T22:37:38.601Z,1011.2
2022-10-25T22:38:12.666Z,1011.0
2022-10-25T22:42:39.000Z,1011.2
2022-10-25T22:47:31.490Z,1011.2
2022-10-25T22:52:37.927Z,1011.1
2022-10-25T22:58:08.332Z,1011.1
2022-10-25T23:02:50.967Z,1011.0
2022-10-25T23:07:57.043Z,1011.1
2022-10-25T23:13:03.418Z,1011.0
2022-10-25T23:18:09.834Z,1011.0
2022-10-25T23:23:16.183Z,1011.1
2022-10-25T23:28:22.571Z,1011.0
2022-10-25T23:33:28.965Z,1011.0
2022-10-25T23:38:35.328Z,1011.0
2022-10-25T23:43:41.776Z,1010.9
2022-10-25T23:48:48.302Z,1011.0
2022-10-25T23:53:54.763Z,1010.9
2022-10-25T23:59:01.251Z,1010.9
